createdAt,value
2022-09-07T00:00:12.227Z,4185.5
2022-09-07T00:05:46.968Z,4182.3
2022-09-07T00:11:21.692Z,4187.2
2022-09-07T00:16:56.498Z,4182
2022-09-07T00:22:32.434Z,4183.1
2022-09-07T00:28:08.575Z,4186.3
2022-09-07T00:33:43.523Z,4182.3
2022-09-07T00:39:18.415Z,4181.8
2022-09-07T00:44:53.227Z,4181.5
2022-09-07T00:50:27.999Z,4180.3
2022-09-07T00:56:02.836Z,4182.3
2022-09-07T01:01:39.663Z,4180.5
2022-09-07T01:07:15.120Z,4180.6
2022-09-07T01:12:49.847Z,4177.5
2022-09-07T01:18:25.193Z,4181.1
2022-09-07T01:24:00.098Z,4179.5
2022-09-07T01:29:35.397Z,4180
2022-09-07T01:35:11.348Z,4178.3
2022-09-07T01:41:07.836Z,4175.9
2022-09-07T01:46:41.641Z,4179.5
2022-09-07T01:52:17.315Z,4176.9
2022-09-07T01:57:52.246Z,4178.6
2022-09-07T02:03:27.028Z,4178.5
2022-09-07T02:09:01.847Z,4176.6
2022-09-07T02:14:36.789Z,4175.9
2022-09-07T02:20:11.596Z,4177.6
2022-09-07T02:25:46.317Z,4176.1
2022-09-07T02:31:21.696Z,4175.9
2022-09-07T02:36:56.836Z,4174.8
2022-09-07T02:42:53.411Z,4173.4
2022-09-07T02:48:25.930Z,4175.3
2022-09-07T02:54:01.611Z,4176.9
2022-09-07T02:59:36.274Z,4174.3
2022-09-07T03:05:10.953Z,4177.5
2022-09-07T03:10:45.787Z,4174.1
2022-09-07T03:16:21.527Z,4173.8
2022-09-07T03:21:56.333Z,4175.6
2022-09-07T03:27:32.255Z,4173.6
2022-09-07T03:33:07.278Z,4171.8
2022-09-07T03:38:42.251Z,4171.3
2022-09-07T03:44:17.257Z,4174.8
2022-09-07T03:49:53.871Z,4171.8
2022-09-07T03:55:28.726Z,4171.6
2022-09-07T04:01:05.907Z,4172.9
2022-09-07T04:06:40.771Z,4170.6
2022-09-07T04:12:15.598Z,4172.1
2022-09-07T04:17:50.551Z,4170.6
2022-09-07T04:23:25.431Z,4170.4
2022-09-07T04:29:00.293Z,4169.4
2022-09-07T04:34:35.208Z,4169.6
2022-09-07T04:40:12.349Z,4170.4
2022-09-07T04:45:48.079Z,4168.2
2022-09-07T04:51:23.001Z,4170.7
2022-09-07T04:56:57.666Z,4169.9
2022-09-07T05:02:34.814Z,4166.2
2022-09-07T05:08:09.895Z,4166.4
2022-09-07T05:13:44.711Z,4168.4
2022-09-07T05:19:19.555Z,4166.4
2022-09-07T05:24:54.451Z,4166.4
2022-09-07T05:31:29.462Z,4166.2
2022-09-07T05:37:04.634Z,4164.7
2022-09-07T05:42:39.492Z,4163.7
2022-09-07T05:48:14.383Z,4167.7
2022-09-07T05:53:49.393Z,4169.7
2022-09-07T05:59:24.296Z,4170.1
2022-09-07T06:04:59.075Z,4174.4
2022-09-07T06:10:49.588Z,4173.6
2022-09-07T06:16:25.317Z,4173.9
2022-09-07T06:22:00.082Z,4177.4
2022-09-07T06:27:35.042Z,4177.8
2022-09-07T06:33:10.108Z,4177.8
2022-09-07T06:38:45.018Z,4177.1
2022-09-07T06:44:19.991Z,4179.5
2022-09-07T06:49:54.680Z,4180.1
2022-09-07T06:55:29.527Z,4181.6
2022-09-07T07:01:05.709Z,4180.1
2022-09-07T07:06:40.572Z,4180.3
2022-09-07T07:18:22.362Z,4188.8
2022-09-07T07:23:57.536Z,4201.9
2022-09-07T07:29:32.391Z,4203.2
2022-09-07T07:35:07.150Z,4200.6
2022-09-07T07:40:44.364Z,4203.9
2022-09-07T07:46:21.377Z,4213.8
2022-09-07T07:53:43.429Z,4211.3
2022-09-07T07:59:19.167Z,4211.5
2022-09-07T08:04:54.338Z,4204.8
2022-09-07T08:10:29.512Z,4206.8
2022-09-07T08:16:06.475Z,4213
2022-09-07T08:21:41.645Z,4208.3
2022-09-07T08:27:16.801Z,4213
2022-09-07T08:32:51.945Z,4223.2
2022-09-07T08:38:26.769Z,4227.4
2022-09-07T08:44:01.853Z,4221.8
2022-09-07T08:49:38.307Z,4225.4
2022-09-07T08:55:13.289Z,4228.7
2022-09-07T09:00:50.599Z,4223.5
2022-09-07T09:06:27.610Z,4217
2022-09-07T09:12:02.370Z,4214
2022-09-07T09:17:37.357Z,4212.6
2022-09-07T09:23:12.183Z,4221.7
2022-09-07T09:28:47.266Z,4230.4
2022-09-07T09:34:35.729Z,4217
2022-09-07T09:40:12.682Z,4229.9
2022-09-07T09:46:19.500Z,4226
2022-09-07T09:52:52.297Z,4215.5
2022-09-07T10:00:12.659Z,4225
2022-09-07T10:05:50.148Z,4222
2022-09-07T10:12:09.521Z,4225.5
2022-09-07T10:17:44.680Z,4220.3
2022-09-07T10:23:19.921Z,4221.2
2022-09-07T10:29:15.070Z,4225.2
2022-09-07T10:34:50.684Z,4220.2
2022-09-07T10:40:26.205Z,4221
2022-09-07T10:46:02.756Z,4215.8
2022-09-07T10:51:37.898Z,4219.3
2022-09-07T10:57:13.423Z,4227
2022-09-07T11:03:28.807Z,4224.7
2022-09-07T11:09:22.488Z,4227.5
2022-09-07T11:14:57.445Z,4218.7
2022-09-07T11:20:32.658Z,4222
2022-09-07T11:26:07.537Z,4216.1
2022-09-07T11:31:42.892Z,4218
2022-09-07T11:37:18.012Z,4228.9
2022-09-07T11:42:53.021Z,4227.2
2022-09-07T11:48:35.090Z,4229.5
2022-09-07T11:54:21.977Z,4217.5
2022-09-07T12:00:02.637Z,4222
2022-09-07T12:05:51.396Z,4226
2022-09-07T12:11:38.671Z,4217.6
2022-09-07T12:17:17.275Z,4227.4
2022-09-07T12:22:52.235Z,4232.9
2022-09-07T12:28:27.496Z,4222.2
2022-09-07T12:34:02.439Z,4217.8
2022-09-07T12:39:38.048Z,4224.7
2022-09-07T12:45:14.045Z,4227.5
2022-09-07T12:50:48.937Z,4213.5
2022-09-07T12:56:23.908Z,4221
2022-09-07T13:02:00.923Z,4221.8
2022-09-07T13:07:37.280Z,4226.7
2022-09-07T13:13:13.772Z,4220.2
2022-09-07T13:18:48.566Z,4217.6
2022-09-07T13:24:53.805Z,4225.4
2022-09-07T13:30:30.215Z,4225.9
2022-09-07T13:36:05.862Z,4230.5
2022-09-07T13:41:40.815Z,4230
2022-09-07T13:47:15.611Z,4223.3
2022-09-07T13:52:50.850Z,4216.3
2022-09-07T13:58:25.687Z,4230
2022-09-07T14:04:00.778Z,4219.2
2022-09-07T14:09:35.695Z,4224.7
2022-09-07T14:15:10.459Z,4227.7
2022-09-07T14:20:45.990Z,4226
2022-09-07T14:26:21.482Z,4222.8
2022-09-07T14:31:56.569Z,4219
2022-09-07T14:37:31.340Z,4226.2
2022-09-07T14:43:06.420Z,4223.7
2022-09-07T14:48:46.217Z,4229
2022-09-07T14:54:20.944Z,4215
2022-09-07T14:59:56.397Z,4220.5
2022-09-07T15:05:31.154Z,4220.8
2022-09-07T15:11:36.321Z,4220.3
2022-09-07T15:17:46.233Z,4214.8
2022-09-07T15:23:22.295Z,4220.8
2022-09-07T15:29:13.052Z,4216.3
2022-09-07T15:34:48.980Z,4225.9
2022-09-07T15:40:24.881Z,4221.2
2022-09-07T15:46:01.927Z,4227.4
2022-09-07T15:52:08.356Z,4228.7
2022-09-07T15:58:13.020Z,4215.8
2022-09-07T16:03:51.604Z,4212
2022-09-07T16:09:27.210Z,4206.6
2022-09-07T16:15:03.309Z,4214.5
2022-09-07T16:20:38.332Z,4207.1
2022-09-07T16:26:26.222Z,4207.8
2022-09-07T16:32:49.454Z,4206.1
2022-09-07T16:38:58.725Z,4205.3
2022-09-07T16:44:34.675Z,4208.6
2022-09-07T16:50:09.255Z,4206.9
2022-09-07T16:55:44.987Z,4206.4
2022-09-07T17:01:21.833Z,4203.2
2022-09-07T17:06:58.144Z,4207.4
2022-09-07T17:12:33.035Z,4208.6
2022-09-07T17:18:07.885Z,4209.6
2022-09-07T17:23:56.858Z,4211
2022-09-07T17:29:32.142Z,4204.6
2022-09-07T17:35:08.082Z,4204.8
2022-09-07T17:40:43.810Z,4205.8
2022-09-07T17:46:20.886Z,4205.4
2022-09-07T17:52:04.825Z,4201.6
2022-09-07T17:57:40.424Z,4201.1
2022-09-07T18:03:15.534Z,4199.9
2022-09-07T18:08:50.256Z,4200.1
2022-09-07T18:14:26.097Z,4200.7
2022-09-07T18:20:00.988Z,4199.2
2022-09-07T18:25:36.850Z,4199.2
2022-09-07T18:31:12.306Z,4199.6
2022-09-07T18:36:47.656Z,4199.6
2022-09-07T18:42:23.314Z,4197.7
2022-09-07T18:47:58.267Z,4197.4
2022-09-07T18:53:34.615Z,4201.1
2022-09-07T18:59:09.556Z,4195.4
2022-09-07T19:05:53.745Z,4197.2
2022-09-07T19:11:28.738Z,4195
2022-09-07T19:17:03.752Z,4197.4
2022-09-07T19:22:39.738Z,4197
2022-09-07T19:28:14.941Z,4196
2022-09-07T19:33:50.292Z,4194.5
2022-09-07T19:39:25.150Z,4197.5
2022-09-07T19:45:00.003Z,4194
2022-09-07T19:50:35.218Z,4195.9
2022-09-07T19:56:09.926Z,4195
2022-09-07T20:01:45.711Z,4194
2022-09-07T20:07:20.663Z,4193.9
2022-09-07T20:12:55.536Z,4194.9
2022-09-07T20:18:31.331Z,4191.4
2022-09-07T20:24:06.691Z,4192.2
2022-09-07T20:29:42.778Z,4192.7
2022-09-07T20:35:17.724Z,4190.7
2022-09-07T20:40:53.206Z,4190.5
2022-09-07T20:46:29.438Z,4189.5
2022-09-07T20:52:04.430Z,4189.7
2022-09-07T20:57:39.277Z,4189.8
